Time;durP1;ratioP1;P1;durP2;ratioP2;P2;SDS_P1;SDS_P2;PMS_P1;PMS_P2;Temp;Humidity;BMP_temperature;BMP_pressure;BME280_temperature;BME280_humidity;BME280_pressure;Samples;Min_cycle;Max_cycle;Signal;HPM_P1;HPM_P2
2022/01/30 00:00:25;;;;;;;;;;;;;;;;;;5135913;27;19919;-74
2022/01/30 00:02:51;;;;;;;;;;;;;;;;;;5136630;27;19915;-74
2022/01/30 00:05:17;;;;;;;;;;;;;;;;;;5136599;27;20300;-74
2022/01/30 00:07:43;;;;;;;;;;;;;;;;;;5136342;27;20018;-74
2022/01/30 00:10:11;;;;;;;;;;;;;;;;;;5136349;27;19916;-74
2022/01/30 00:15:08;;;;;;;;;;;;;;;;;;5136244;27;19923;-75
2022/01/30 00:17:36;;;;;;;;;;;;;;;;;;5135774;27;19916;-74
2022/01/30 00:20:07;;;;;;;;;;;;;;;;;;5135910;27;20388;-74
2022/01/30 00:25:15;;;;;;;;;;;;;;;;;;5136054;27;20397;-75
2022/01/30 00:27:50;;;;;;;;;;;;;;;;;;5136459;27;20014;-74
2022/01/30 00:30:17;;;;;;;;;;;;;;;;;;5117692;27;20261;-74
2022/01/30 00:32:42;;;;;;;;;;;;;;;;;;5136282;27;19915;-74
2022/01/30 00:35:11;;;;;;;;;;;;;;;;;;5135244;27;19916;-74
2022/01/30 00:37:41;;;;;;;;;;;;;;;;;;5136136;27;19915;-74
2022/01/30 00:40:07;;;;;;;;;;;;;;;;;;5117479;27;19955;-74
2022/01/30 00:42:33;;;;;;;;;;;;;;;;;;5136110;27;19930;-74
2022/01/30 00:44:58;;;;;;;;;;;;;;;;;;5136071;27;19915;-74
2022/01/30 00:47:23;;;;;;;;;;;;;;;;;;5135793;27;19916;-74
2022/01/30 00:49:48;;;;;;;;;;;;;;;;;;5100126;27;19926;-74
2022/01/30 00:52:16;;;;;;;;;;;;;;;;;;5117331;27;19962;-74
2022/01/30 00:54:42;;;;;;;;;;;;;;;;;;5135343;27;20028;-74
2022/01/30 00:57:07;;;;;;;;;;;;;;;;;;5116462;27;20002;-74
2022/01/30 00:59:33;;;;;;;;;;;;;;;;;;5135858;27;20281;-74
2022/01/30 01:01:58;;;;;;;;;;;;;;;;;;5113677;27;19927;-74
2022/01/30 01:04:23;;;;;;;;;;;;;;;;;;5113313;28;19923;-74
2022/01/30 01:06:50;;;;;;;;;;;;;;;;;;5114946;28;19922;-74
2022/01/30 01:09:17;;;;;;;;;;;;;;;;;;5114301;28;19930;-74
2022/01/30 01:12:26;;;;;;;;;;;;;;;;;;5096580;28;19918;-74
2022/01/30 01:25:38;;;;;;;;;;;;;;;;;;5113288;28;19915;-74
2022/01/30 01:28:03;;;;;;;;;;;;;;;;;;5096187;28;19916;-74
2022/01/30 01:30:29;;;;;;;;;;;;;;;;;;5095946;28;20373;-74
2022/01/30 01:32:54;;;;;;;;;;;;;;;;;;5113825;27;19919;-74
2022/01/30 01:35:20;;;;;;;;;;;;;;;;;;5114231;28;20010;-74
2022/01/30 01:37:51;;;;;;;;;;;;;;;;;;5096335;28;19920;-74
2022/01/30 01:40:17;;;;;;;;;;;;;;;;;;5096062;28;19915;-74
2022/01/30 01:42:43;;;;;;;;;;;;;;;;;;5096047;28;19919;-74
2022/01/30 01:45:09;;;;;;;;;;;;;;;;;;5096035;28;19916;-74
2022/01/30 01:47:34;;;;;;;;;;;;;;;;;;5114410;28;20115;-74
2022/01/30 01:50:00;;;;;;;;;;;;;;;;;;5096007;28;20389;-74
2022/01/30 01:52:26;;;;;;;;;;;;;;;;;;5095727;28;20014;-74
2022/01/30 01:54:59;;;;;;;;;;;;;;;;;;5079458;28;19916;-74
2022/01/30 01:57:25;;;;;;;;;;;;;;;;;;5096128;28;20014;-74
2022/01/30 02:00:14;;;;;;;;;;;;;;;;;;5084462;28;20003;-74
2022/01/30 02:02:39;;;;;;;;;;;;;;;;;;5113660;28;19955;-74
2022/01/30 02:05:06;;;;;;;;;;;;;;;;;;5118057;27;20463;-74
2022/01/30 02:07:58;;;;;;;;;;;;;;;;;;5116429;28;19915;-74
2022/01/30 02:10:24;;;;;;;;;;;;;;;;;;5116141;28;19988;-74
2022/01/30 02:12:53;;;;;;;;;;;;;;;;;;5115963;28;19974;-73
2022/01/30 02:25:57;;;;;;;;;;;;;;;;;;5134474;28;19924;-74
2022/01/30 02:28:24;;;;;;;;;;;;;;;;;;5115790;27;19955;-74
2022/01/30 02:30:58;;;;;;;;;;;;;;;;;;5115761;28;19925;-74
2022/01/30 02:33:24;;;;;;;;;;;;;;;;;;5099075;28;20010;-74
2022/01/30 02:35:49;;;;;;;;;;;;;;;;;;5115914;28;19963;-73
2022/01/30 02:38:18;;;;;;;;;;;;;;;;;;5115949;27;19919;-74
2022/01/30 02:40:46;;;;;;;;;;;;;;;;;;5116099;28;19926;-74
2022/01/30 02:43:15;;;;;;;;;;;;;;;;;;5134446;28;19916;-74
2022/01/30 02:45:52;;;;;;;;;;;;;;;;;;5115972;28;19963;-74
2022/01/30 02:48:30;;;;;;;;;;;;;;;;;;5098795;28;19922;-74
2022/01/30 02:51:07;;;;;;;;;;;;;;;;;;5078410;28;19951;-74
2022/01/30 02:53:38;;;;;;;;;;;;;;;;;;5078810;28;19916;-74
2022/01/30 02:56:04;;;;;;;;;;;;;;;;;;5095073;28;20002;-74
2022/01/30 02:58:29;;;;;;;;;;;;;;;;;;5112304;28;20351;-74
2022/01/30 03:00:55;;;;;;;;;;;;;;;;;;5112011;28;19939;-74
2022/01/30 03:03:20;;;;;;;;;;;;;;;;;;5112506;28;19923;-74
2022/01/30 03:05:45;;;;;;;;;;;;;;;;;;5114302;28;19951;-74
2022/01/30 03:08:11;;;;;;;;;;;;;;;;;;5095202;28;19938;-74
2022/01/30 03:10:37;;;;;;;;;;;;;;;;;;5095143;28;19923;-74
2022/01/30 03:13:02;;;;;;;;;;;;;;;;;;5095301;28;19916;-74
2022/01/30 03:15:27;;;;;;;;;;;;;;;;;;5094905;28;19920;-74
2022/01/30 03:17:52;;;;;;;;;;;;;;;;;;5096650;28;20389;-74
2022/01/30 03:20:18;;;;;;;;;;;;;;;;;;5095368;28;20916;-74
2022/01/30 03:22:43;;;;;;;;;;;;;;;;;;5096647;28;19923;-74
2022/01/30 03:25:08;;;;;;;;;;;;;;;;;;5095222;28;20373;-74
2022/01/30 03:27:54;;;;;;;;;;;;;;;;;;5095481;28;19959;-74
2022/01/30 03:30:28;;;;;;;;;;;;;;;;;;5095077;28;19959;-73
2022/01/30 03:33:12;;;;;;;;;;;;;;;;;;5115630;28;19964;-73
2022/01/30 03:35:38;;;;;;;;;;;;;;;;;;5115468;28;19920;-73
2022/01/30 03:38:04;;;;;;;;;;;;;;;;;;5116514;28;20505;-73
2022/01/30 03:40:31;;;;;;;;;;;;;;;;;;5116644;28;19943;-73
2022/01/30 03:42:57;;;;;;;;;;;;;;;;;;5098473;28;19958;-73
2022/01/30 03:45:22;;;;;;;;;;;;;;;;;;5116181;28;19936;-73
2022/01/30 03:47:48;;;;;;;;;;;;;;;;;;5114616;28;19920;-73
2022/01/30 03:50:20;;;;;;;;;;;;;;;;;;5115357;28;19965;-73
2022/01/30 03:52:46;;;;;;;;;;;;;;;;;;5114604;28;19923;-73
2022/01/30 03:55:11;;;;;;;;;;;;;;;;;;5116191;28;19939;-73
2022/01/30 03:57:37;;;;;;;;;;;;;;;;;;5115310;28;19915;-74
2022/01/30 04:00:06;;;;;;;;;;;;;;;;;;5114423;28;19916;-74
2022/01/30 04:02:31;;;;;;;;;;;;;;;;;;5115107;28;19962;-74
2022/01/30 04:04:57;;;;;;;;;;;;;;;;;;5114966;28;20338;-74
2022/01/30 04:07:23;;;;;;;;;;;;;;;;;;5097783;28;19919;-74
2022/01/30 04:09:49;;;;;;;;;;;;;;;;;;5115958;28;19968;-74
2022/01/30 04:12:21;;;;;;;;;;;;;;;;;;5114240;28;19923;-74
2022/01/30 04:15:00;;;;;;;;;;;;;;;;;;5114771;28;19916;-74
2022/01/30 04:17:44;;;;;;;;;;;;;;;;;;5094383;28;19924;-74
2022/01/30 04:20:30;;;;;;;;;;;;;;;;;;5084063;28;19955;-74
2022/01/30 04:23:15;;;;;;;;;;;;;;;;;;5084471;28;19927;-74
2022/01/30 04:25:56;;;;;;;;;;;;;;;;;;5094234;28;19920;-74
2022/01/30 04:28:39;;;;;;;;;;;;;;;;;;5095327;28;19962;-74
2022/01/30 04:31:38;;;;;;;;;;;;;;;;;;5093708;28;20373;-74
2022/01/30 04:34:20;;;;;;;;;;;;;;;;;;5093330;28;20014;-74
2022/01/30 04:37:03;;;;;;;;;;;;;;;;;;5094044;28;20432;-74
2022/01/30 04:40:34;;;;;;;;;;;;;;;;;;5092130;28;19951;-74
2022/01/30 04:55:40;;;;;;;;;;;;;;;;;;5093704;28;20386;-74
2022/01/30 04:58:27;;;;;;;;;;;;;;;;;;5093564;28;19916;-74
2022/01/30 05:01:06;;;;;;;;;;;;;;;;;;5077334;28;20002;-74
2022/01/30 05:07:25;;;;;;;;;;;;;;;;;;5060391;28;20006;-74
2022/01/30 05:09:56;;;;;;;;;;;;;;;;;;5094687;28;20377;-74
2022/01/30 05:12:36;;;;;;;;;;;;;;;;;;5093343;28;20274;-74
2022/01/30 05:15:21;;;;;;;;;;;;;;;;;;5098352;27;19962;-74
2022/01/30 05:18:05;;;;;;;;;;;;;;;;;;5135421;27;19922;-73
2022/01/30 05:20:49;;;;;;;;;;;;;;;;;;5135269;27;20263;-74
2022/01/30 05:23:35;;;;;;;;;;;;;;;;;;5134659;27;19915;-73
2022/01/30 05:26:10;;;;;;;;;;;;;;;;;;5116882;27;20418;-74
2022/01/30 05:28:42;;;;;;;;;;;;;;;;;;5116519;27;20377;-74
2022/01/30 05:31:26;;;;;;;;;;;;;;;;;;5116616;27;20391;-73
2022/01/30 05:34:10;;;;;;;;;;;;;;;;;;5135163;27;19924;-74
2022/01/30 05:36:52;;;;;;;;;;;;;;;;;;5133901;27;20364;-74
2022/01/30 05:39:36;;;;;;;;;;;;;;;;;;5135288;27;20276;-74
2022/01/30 05:42:40;;;;;;;;;;;;;;;;;;5107258;27;19922;-73
2022/01/30 05:45:44;;;;;;;;;;;;;;;;;;5060781;27;19917;-74
2022/01/30 05:48:17;;;;;;;;;;;;;;;;;;5134970;27;19916;-74
2022/01/30 05:51:01;;;;;;;;;;;;;;;;;;5133528;27;20537;-74
2022/01/30 05:53:35;;;;;;;;;;;;;;;;;;5099643;28;19920;-73
2022/01/30 05:56:13;;;;;;;;;;;;;;;;;;5134908;27;19915;-74
2022/01/30 05:58:39;;;;;;;;;;;;;;;;;;5116404;27;20394;-74
2022/01/30 06:01:23;;;;;;;;;;;;;;;;;;5134648;27;20384;-74
2022/01/30 06:03:49;;;;;;;;;;;;;;;;;;5115451;28;19929;-74
2022/01/30 06:06:14;;;;;;;;;;;;;;;;;;5134512;27;19915;-74
2022/01/30 06:08:46;;;;;;;;;;;;;;;;;;5115690;28;19923;-74
2022/01/30 06:11:12;;;;;;;;;;;;;;;;;;5116120;28;20270;-74
2022/01/30 06:13:38;;;;;;;;;;;;;;;;;;5116120;28;19919;-74
2022/01/30 06:16:04;;;;;;;;;;;;;;;;;;5112766;28;20285;-74
2022/01/30 06:18:30;;;;;;;;;;;;;;;;;;5112444;28;19970;-74
2022/01/30 06:21:07;;;;;;;;;;;;;;;;;;5114374;28;19915;-74
2022/01/30 06:23:44;;;;;;;;;;;;;;;;;;5114255;28;20265;-74
2022/01/30 06:26:28;;;;;;;;;;;;;;;;;;5113259;28;19922;-73
2022/01/30 06:29:12;;;;;;;;;;;;;;;;;;5114003;28;19972;-73
2022/01/30 06:31:56;;;;;;;;;;;;;;;;;;5114180;28;19926;-74
2022/01/30 06:34:40;;;;;;;;;;;;;;;;;;5112951;28;19922;-74
2022/01/30 06:37:24;;;;;;;;;;;;;;;;;;5113944;28;19961;-73
2022/01/30 06:40:08;;;;;;;;;;;;;;;;;;5113604;28;20011;-74
2022/01/30 06:43:02;;;;;;;;;;;;;;;;;;5113616;28;20000;-74
2022/01/30 06:45:47;;;;;;;;;;;;;;;;;;5113173;28;19927;-73
2022/01/30 06:48:32;;;;;;;;;;;;;;;;;;5114762;28;19914;-73
2022/01/30 06:51:15;;;;;;;;;;;;;;;;;;5117498;28;19978;-74
2022/01/30 06:53:59;;;;;;;;;;;;;;;;;;5117393;28;19970;-73
2022/01/30 06:56:43;;;;;;;;;;;;;;;;;;5117681;28;20002;-73
2022/01/30 06:59:27;;;;;;;;;;;;;;;;;;5117237;28;20403;-73
2022/01/30 07:02:11;;;;;;;;;;;;;;;;;;5117883;28;20065;-73
2022/01/30 07:04:55;;;;;;;;;;;;;;;;;;5117377;28;19923;-73
2022/01/30 07:07:25;;;;;;;;;;;;;;;;;;5115820;28;19922;-73
2022/01/30 07:09:51;;;;;;;;;;;;;;;;;;5117142;28;19920;-73
2022/01/30 07:12:16;;;;;;;;;;;;;;;;;;5117482;28;20078;-73
2022/01/30 07:14:41;;;;;;;;;;;;;;;;;;5117168;28;19947;-73
2022/01/30 07:17:06;;;;;;;;;;;;;;;;;;5134455;27;19919;-73
2022/01/30 07:19:32;;;;;;;;;;;;;;;;;;5137878;27;19972;-73
2022/01/30 07:21:57;;;;;;;;;;;;;;;;;;5119168;27;19915;-73
2022/01/30 07:24:22;;;;;;;;;;;;;;;;;;5137379;27;20455;-74
2022/01/30 07:26:47;;;;;;;;;;;;;;;;;;5137707;27;19915;-73
2022/01/30 07:29:13;;;;;;;;;;;;;;;;;;5137379;27;19926;-74
2022/01/30 07:31:38;;;;;;;;;;;;;;;;;;5137435;27;19915;-74
2022/01/30 07:34:04;;;;;;;;;;;;;;;;;;5118947;27;19950;-74
2022/01/30 07:36:30;;;;;;;;;;;;;;;;;;5137585;27;20441;-74
2022/01/30 07:38:56;;;;;;;;;;;;;;;;;;5137500;27;20295;-74
2022/01/30 07:41:21;;;;;;;;;;;;;;;;;;5136755;27;19921;-73
2022/01/30 07:43:47;;;;;;;;;;;;;;;;;;5137291;27;19915;-73
2022/01/30 07:46:17;;;;;;;;;;;;;;;;;;5136786;27;19915;-74
2022/01/30 07:48:42;;;;;;;;;;;;;;;;;;5137212;27;20404;-74
2022/01/30 07:51:07;;;;;;;;;;;;;;;;;;5137062;27;20391;-74
2022/01/30 07:53:33;;;;;;;;;;;;;;;;;;5118754;27;20367;-77
2022/01/30 07:55:58;;;;;;;;;;;;;;;;;;5136763;27;20403;-75
2022/01/30 07:58:24;;;;;;;;;;;;;;;;;;5137193;27;20304;-74
2022/01/30 08:00:49;;;;;;;;;;;;;;;;;;5134933;27;20269;-75
2022/01/30 08:03:14;;;;;;;;;;;;;;;;;;5136415;27;20411;-74
2022/01/30 08:05:39;;;;;;;;;;;;;;;;;;5137166;27;19915;-75
2022/01/30 08:08:05;;;;;;;;;;;;;;;;;;5136843;27;19958;-75
2022/01/30 08:10:31;;;;;;;;;;;;;;;;;;5136231;27;19923;-75
2022/01/30 08:12:56;;;;;;;;;;;;;;;;;;5136508;27;20258;-74
2022/01/30 08:15:22;;;;;;;;;;;;;;;;;;5136496;27;20002;-75
2022/01/30 08:17:48;;;;;;;;;;;;;;;;;;5137015;27;20472;-73
2022/01/30 08:20:13;;;;;;;;;;;;;;;;;;5136434;27;19915;-73
2022/01/30 08:22:49;;;;;;;;;;;;;;;;;;5136635;27;19922;-73
2022/01/30 08:25:15;;;;;;;;;;;;;;;;;;5136543;27;20274;-73
2022/01/30 08:27:40;;;;;;;;;;;;;;;;;;5136487;27;19964;-73
2022/01/30 08:30:06;;;;;;;;;;;;;;;;;;5136042;27;19972;-73
2022/01/30 08:32:31;;;;;;;;;;;;;;;;;;5136805;27;20272;-73
2022/01/30 08:34:57;;;;;;;;;;;;;;;;;;5136410;27;19919;-73
2022/01/30 08:37:22;;;;;;;;;;;;;;;;;;5136386;27;19915;-73
2022/01/30 08:39:48;;;;;;;;;;;;;;;;;;5136320;27;20359;-73
2022/01/30 08:42:13;;;;;;;;;;;;;;;;;;5136470;27;20486;-73
2022/01/30 08:44:38;;;;;;;;;;;;;;;;;;5136412;27;19922;-73
2022/01/30 08:47:03;;;;;;;;;;;;;;;;;;5136457;27;19949;-73
2022/01/30 08:49:29;;;;;;;;;;;;;;;;;;5135948;27;19919;-73
2022/01/30 08:51:55;;;;;;;;;;;;;;;;;;5117715;27;20002;-73
2022/01/30 08:54:20;;;;;;;;;;;;;;;;;;5136208;27;19920;-74
2022/01/30 08:56:45;;;;;;;;;;;;;;;;;;5117888;27;20444;-73
2022/01/30 08:59:11;;;;;;;;;;;;;;;;;;5137266;27;19916;-75
2022/01/30 09:01:37;;;;;;;;;;;;;;;;;;5118445;27;20411;-75
2022/01/30 09:04:03;;;;;;;;;;;;;;;;;;5137118;27;19915;-76
2022/01/30 09:06:28;;;;;;;;;;;;;;;;;;5137139;27;19922;-75
2022/01/30 09:08:54;;;;;;;;;;;;;;;;;;5102145;27;19916;-76
2022/01/30 09:11:19;;;;;;;;;;;;;;;;;;5137353;27;19919;-76
2022/01/30 09:13:44;;;;;;;;;;;;;;;;;;5137159;27;19916;-76
2022/01/30 09:16:10;;;;;;;;;;;;;;;;;;5118619;27;19965;-76
2022/01/30 09:18:38;;;;;;;;;;;;;;;;;;5137105;27;19915;-76
2022/01/30 09:21:04;;;;;;;;;;;;;;;;;;5118680;27;19922;-76
2022/01/30 09:23:29;;;;;;;;;;;;;;;;;;5118092;27;19916;-76
2022/01/30 09:25:54;;;;;;;;;;;;;;;;;;5117544;27;20383;-75
2022/01/30 09:28:19;;;;;;;;;;;;;;;;;;5135646;27;19923;-77
2022/01/30 09:30:45;;;;;;;;;;;;;;;;;;5136611;27;20010;-76
2022/01/30 09:33:10;;;;;;;;;;;;;;;;;;5137141;27;19915;-77
2022/01/30 09:35:35;;;;;;;;;;;;;;;;;;5137526;27;20440;-77
2022/01/30 09:38:01;;;;;;;;;;;;;;;;;;5136614;27;20273;-76
2022/01/30 09:40:26;;;;;;;;;;;;;;;;;;5119806;27;19926;-76
2022/01/30 09:42:52;;;;;;;;;;;;;;;;;;5135538;27;20007;-76
2022/01/30 09:45:20;;;;;;;;;;;;;;;;;;5100841;27;19922;-73
2022/01/30 09:47:45;;;;;;;;;;;;;;;;;;5137194;27;19923;-77
2022/01/30 09:50:11;;;;;;;;;;;;;;;;;;5135072;27;19920;-74
2022/01/30 09:52:36;;;;;;;;;;;;;;;;;;5135692;27;19954;-78
2022/01/30 09:55:03;;;;;;;;;;;;;;;;;;5117383;27;20384;-76
2022/01/30 09:57:28;;;;;;;;;;;;;;;;;;5135604;27;19968;-74
2022/01/30 09:59:55;;;;;;;;;;;;;;;;;;5134747;27;20291;-73
2022/01/30 10:02:25;;;;;;;;;;;;;;;;;;5134504;27;19915;-75
2022/01/30 10:04:51;;;;;;;;;;;;;;;;;;5115284;27;20391;-73
2022/01/30 10:07:19;;;;;;;;;;;;;;;;;;5134782;27;19920;-72
2022/01/30 10:09:46;;;;;;;;;;;;;;;;;;5134541;27;19926;-72
2022/01/30 10:12:16;;;;;;;;;;;;;;;;;;5116446;28;19922;-72
2022/01/30 10:14:47;;;;;;;;;;;;;;;;;;5134751;28;20022;-72
2022/01/30 10:17:26;;;;;;;;;;;;;;;;;;5134397;28;19920;-72
2022/01/30 10:20:12;;;;;;;;;;;;;;;;;;5134682;27;19915;-71
2022/01/30 10:22:50;;;;;;;;;;;;;;;;;;5135064;27;21194;-72
2022/01/30 10:25:24;;;;;;;;;;;;;;;;;;5138885;27;19919;-71
2022/01/30 10:28:03;;;;;;;;;;;;;;;;;;5126600;27;19963;-72
2022/01/30 10:30:28;;;;;;;;;;;;;;;;;;5121605;27;20385;-71
2022/01/30 10:32:55;;;;;;;;;;;;;;;;;;5118047;28;19919;-71
2022/01/30 10:35:21;;;;;;;;;;;;;;;;;;5117981;28;19947;-71
2022/01/30 10:37:46;;;;;;;;;;;;;;;;;;5118247;28;20344;-71
2022/01/30 10:40:17;;;;;;;;;;;;;;;;;;5118011;28;19916;-73
2022/01/30 10:42:42;;;;;;;;;;;;;;;;;;5118178;28;19955;-72
2022/01/30 10:45:12;;;;;;;;;;;;;;;;;;5118017;27;19959;-72
2022/01/30 10:47:37;;;;;;;;;;;;;;;;;;5120507;27;19962;-74
2022/01/30 10:50:10;;;;;;;;;;;;;;;;;;5138041;27;19967;-74
2022/01/30 10:52:46;;;;;;;;;;;;;;;;;;5137864;27;19968;-73
2022/01/30 10:55:11;;;;;;;;;;;;;;;;;;5137524;27;19965;-74
2022/01/30 10:57:40;;;;;;;;;;;;;;;;;;5137844;27;19955;-74
2022/01/30 11:00:06;;;;;;;;;;;;;;;;;;5137874;27;19915;-73
2022/01/30 11:02:35;;;;;;;;;;;;;;;;;;5138220;27;19915;-73
2022/01/30 11:05:02;;;;;;;;;;;;;;;;;;5137349;27;19922;-73
2022/01/30 11:07:30;;;;;;;;;;;;;;;;;;5138025;27;20285;-73
2022/01/30 11:09:58;;;;;;;;;;;;;;;;;;5137889;27;19920;-73
2022/01/30 11:12:56;;;;;;;;;;;;;;;;;;5119285;27;19922;-73
2022/01/30 11:15:34;;;;;;;;;;;;;;;;;;5138039;27;19926;-73
2022/01/30 11:18:00;;;;;;;;;;;;;;;;;;5137749;27;19919;-73
2022/01/30 11:20:26;;;;;;;;;;;;;;;;;;5137932;27;19916;-73
2022/01/30 11:22:54;;;;;;;;;;;;;;;;;;5137895;27;19915;-74
2022/01/30 11:25:21;;;;;;;;;;;;;;;;;;5137126;27;20379;-73
2022/01/30 11:27:47;;;;;;;;;;;;;;;;;;5137815;27;20444;-74
2022/01/30 11:30:15;;;;;;;;;;;;;;;;;;5137502;27;19927;-73
2022/01/30 11:32:40;;;;;;;;;;;;;;;;;;5137488;27;19915;-73
2022/01/30 11:35:06;;;;;;;;;;;;;;;;;;5135999;27;19942;-74
2022/01/30 11:37:33;;;;;;;;;;;;;;;;;;5138038;27;20018;-75
2022/01/30 11:40:00;;;;;;;;;;;;;;;;;;5138283;27;19923;-74
2022/01/30 11:42:44;;;;;;;;;;;;;;;;;;5137981;27;19962;-76
2022/01/30 11:45:11;;;;;;;;;;;;;;;;;;5138519;27;19922;-76
2022/01/30 11:47:45;;;;;;;;;;;;;;;;;;5140384;27;19926;-76
2022/01/30 11:50:11;;;;;;;;;;;;;;;;;;5138926;27;20304;-76
2022/01/30 11:52:47;;;;;;;;;;;;;;;;;;5137810;27;19915;-75
2022/01/30 11:55:31;;;;;;;;;;;;;;;;;;5137939;27;19961;-76
2022/01/30 11:57:56;;;;;;;;;;;;;;;;;;5137895;27;20384;-76
2022/01/30 12:00:33;;;;;;;;;;;;;;;;;;5137535;27;19994;-75
2022/01/30 12:03:17;;;;;;;;;;;;;;;;;;5139752;27;19938;-75
2022/01/30 12:05:42;;;;;;;;;;;;;;;;;;5137247;27;19958;-74
2022/01/30 12:08:28;;;;;;;;;;;;;;;;;;5120946;27;19918;-78
2022/01/30 12:10:53;;;;;;;;;;;;;;;;;;5137844;27;20636;-75
2022/01/30 12:13:38;;;;;;;;;;;;;;;;;;5137722;27;19932;-76
2022/01/30 12:16:04;;;;;;;;;;;;;;;;;;5136945;27;19920;-74
2022/01/30 12:18:45;;;;;;;;;;;;;;;;;;5137491;27;19987;-75
2022/01/30 12:21:14;;;;;;;;;;;;;;;;;;5138262;27;19919;-76
2022/01/30 12:23:41;;;;;;;;;;;;;;;;;;5139591;27;19920;-78
2022/01/30 12:26:06;;;;;;;;;;;;;;;;;;5137050;27;20323;-77
2022/01/30 12:28:43;;;;;;;;;;;;;;;;;;5137379;27;19960;-76
2022/01/30 12:31:32;;;;;;;;;;;;;;;;;;5136477;27;19926;-76
2022/01/30 12:33:58;;;;;;;;;;;;;;;;;;5137095;27;20009;-76
2022/01/30 12:36:23;;;;;;;;;;;;;;;;;;5136846;27;19916;-76
2022/01/30 12:38:56;;;;;;;;;;;;;;;;;;5137527;27;20010;-76
2022/01/30 12:41:22;;;;;;;;;;;;;;;;;;5138289;27;19966;-76
2022/01/30 12:43:52;;;;;;;;;;;;;;;;;;5119309;27;19947;-76
2022/01/30 12:46:17;;;;;;;;;;;;;;;;;;5137997;27;19911;-76
2022/01/30 12:48:57;;;;;;;;;;;;;;;;;;5137639;27;20274;-76
2022/01/30 12:51:22;;;;;;;;;;;;;;;;;;5137815;27;20300;-76
2022/01/30 12:53:48;;;;;;;;;;;;;;;;;;5137026;27;19916;-76
2022/01/30 12:56:13;;;;;;;;;;;;;;;;;;5137159;27;20006;-76
2022/01/30 12:58:41;;;;;;;;;;;;;;;;;;5137880;27;19917;-74
2022/01/30 13:01:11;;;;;;;;;;;;;;;;;;5119764;27;19945;-74
2022/01/30 13:03:37;;;;;;;;;;;;;;;;;;5138702;27;19920;-75
2022/01/30 13:06:03;;;;;;;;;;;;;;;;;;5138542;27;19922;-75
2022/01/30 13:08:48;;;;;;;;;;;;;;;;;;5120447;27;19922;-74
2022/01/30 13:11:14;;;;;;;;;;;;;;;;;;5136440;27;19919;-73
2022/01/30 13:13:50;;;;;;;;;;;;;;;;;;5137292;27;20014;-74
2022/01/30 13:16:15;;;;;;;;;;;;;;;;;;5136287;27;19979;-73
2022/01/30 13:18:43;;;;;;;;;;;;;;;;;;5116810;27;20333;-73
2022/01/30 13:21:09;;;;;;;;;;;;;;;;;;5136186;27;19920;-74
2022/01/30 13:23:34;;;;;;;;;;;;;;;;;;5117830;27;19922;-75
2022/01/30 13:26:01;;;;;;;;;;;;;;;;;;5136592;27;19998;-75
2022/01/30 13:28:26;;;;;;;;;;;;;;;;;;5135715;27;19919;-75
2022/01/30 13:30:53;;;;;;;;;;;;;;;;;;5136830;27;19942;-75
2022/01/30 13:33:18;;;;;;;;;;;;;;;;;;5118116;27;19951;-74
2022/01/30 13:35:45;;;;;;;;;;;;;;;;;;5136998;27;19923;-74
2022/01/30 13:38:11;;;;;;;;;;;;;;;;;;5136926;27;19915;-75
2022/01/30 13:40:48;;;;;;;;;;;;;;;;;;5136136;27;20399;-75
2022/01/30 13:43:17;;;;;;;;;;;;;;;;;;5136543;27;19922;-75
2022/01/30 13:48:09;;;;;;;;;;;;;;;;;;5137894;27;20002;-74
2022/01/30 13:50:36;;;;;;;;;;;;;;;;;;5137603;27;19920;-74
2022/01/30 13:53:03;;;;;;;;;;;;;;;;;;5137369;27;19916;-74
2022/01/30 13:55:29;;;;;;;;;;;;;;;;;;5137273;27;19960;-74
2022/01/30 13:57:58;;;;;;;;;;;;;;;;;;5118956;28;20369;-74
2022/01/30 14:00:24;;;;;;;;;;;;;;;;;;5137461;27;20010;-74
2022/01/30 14:02:53;;;;;;;;;;;;;;;;;;5138228;27;20429;-74
2022/01/30 14:05:23;;;;;;;;;;;;;;;;;;5138346;27;20369;-74
2022/01/30 14:07:49;;;;;;;;;;;;;;;;;;5138466;27;20320;-74
2022/01/30 14:10:14;;;;;;;;;;;;;;;;;;5138250;27;19927;-74
2022/01/30 14:12:40;;;;;;;;;;;;;;;;;;5119337;28;19973;-74
2022/01/30 14:15:11;;;;;;;;;;;;;;;;;;5119355;28;19915;-74
2022/01/30 14:17:42;;;;;;;;;;;;;;;;;;5137438;28;19927;-74
2022/01/30 14:20:10;;;;;;;;;;;;;;;;;;5138994;27;19915;-74
2022/01/30 14:22:36;;;;;;;;;;;;;;;;;;5138069;28;19915;-74
2022/01/30 14:25:02;;;;;;;;;;;;;;;;;;5136178;28;20015;-74
2022/01/30 14:27:33;;;;;;;;;;;;;;;;;;5135569;28;19915;-73
2022/01/30 14:30:04;;;;;;;;;;;;;;;;;;5117568;28;19919;-74
2022/01/30 14:32:34;;;;;;;;;;;;;;;;;;5117788;28;19955;-74
2022/01/30 14:35:00;;;;;;;;;;;;;;;;;;5136817;28;19916;-74
2022/01/30 14:37:25;;;;;;;;;;;;;;;;;;5119102;28;19922;-74
2022/01/30 14:39:54;;;;;;;;;;;;;;;;;;5136551;27;20322;-74
2022/01/30 14:42:19;;;;;;;;;;;;;;;;;;5138154;28;20326;-74
2022/01/30 14:44:45;;;;;;;;;;;;;;;;;;5119860;28;19915;-74
2022/01/30 14:47:10;;;;;;;;;;;;;;;;;;5138548;28;19955;-74
2022/01/30 14:49:36;;;;;;;;;;;;;;;;;;5137579;27;19923;-74
2022/01/30 14:52:03;;;;;;;;;;;;;;;;;;5138309;28;19916;-74
2022/01/30 14:54:29;;;;;;;;;;;;;;;;;;5138715;28;20018;-74
2022/01/30 14:56:54;;;;;;;;;;;;;;;;;;5138861;28;19962;-74
2022/01/30 14:59:19;;;;;;;;;;;;;;;;;;5138588;27;19923;-74
2022/01/30 15:01:45;;;;;;;;;;;;;;;;;;5138907;28;20281;-74
2022/01/30 15:04:10;;;;;;;;;;;;;;;;;;5139075;28;19915;-74
2022/01/30 15:06:36;;;;;;;;;;;;;;;;;;5120801;28;19926;-74
2022/01/30 15:09:02;;;;;;;;;;;;;;;;;;5140960;27;19919;-74
2022/01/30 15:11:27;;;;;;;;;;;;;;;;;;5143423;27;20021;-74
2022/01/30 15:13:53;;;;;;;;;;;;;;;;;;5144038;27;19962;-74
2022/01/30 15:16:39;;;;;;;;;;;;;;;;;;5143235;27;19927;-74
2022/01/30 15:19:06;;;;;;;;;;;;;;;;;;5125266;27;19915;-74
2022/01/30 15:21:31;;;;;;;;;;;;;;;;;;5142886;27;20056;-74
2022/01/30 15:23:57;;;;;;;;;;;;;;;;;;5142594;27;19972;-74
2022/01/30 15:26:22;;;;;;;;;;;;;;;;;;5142803;27;20084;-74
2022/01/30 15:28:51;;;;;;;;;;;;;;;;;;5108061;27;19919;-74
2022/01/30 15:31:16;;;;;;;;;;;;;;;;;;5143258;27;19930;-74
2022/01/30 15:33:42;;;;;;;;;;;;;;;;;;5142229;27;19915;-74
2022/01/30 15:36:07;;;;;;;;;;;;;;;;;;5141573;27;19924;-77
2022/01/30 15:38:33;;;;;;;;;;;;;;;;;;5141699;27;19993;-77
2022/01/30 15:40:59;;;;;;;;;;;;;;;;;;5123385;27;19960;-77
2022/01/30 15:43:26;;;;;;;;;;;;;;;;;;5141703;27;19915;-81
2022/01/30 15:51:19;;;;;;;;;;;;;;;;;;5142538;27;19919;-82
2022/01/30 15:53:44;;;;;;;;;;;;;;;;;;5146336;27;19926;-79
2022/01/30 15:56:10;;;;;;;;;;;;;;;;;;5145033;27;20322;-86
2022/01/30 15:58:35;;;;;;;;;;;;;;;;;;5108142;27;19922;-83
2022/01/30 16:01:01;;;;;;;;;;;;;;;;;;5133760;27;19968;-79
2022/01/30 16:03:26;;;;;;;;;;;;;;;;;;5120023;28;20416;-80
2022/01/30 16:05:52;;;;;;;;;;;;;;;;;;5117781;28;19916;-78
2022/01/30 16:08:19;;;;;;;;;;;;;;;;;;5126787;27;19919;-81
2022/01/30 16:10:57;;;;;;;;;;;;;;;;;;5125340;27;19986;-82
2022/01/30 16:16:07;;;;;;;;;;;;;;;;;;5145724;27;19924;-83
2022/01/30 16:18:33;;;;;;;;;;;;;;;;;;5105166;27;20408;-77
2022/01/30 16:20:59;;;;;;;;;;;;;;;;;;5118044;27;19969;-75
2022/01/30 16:23:25;;;;;;;;;;;;;;;;;;5107874;27;19916;-75
2022/01/30 16:25:51;;;;;;;;;;;;;;;;;;5107933;27;19931;-77
2022/01/30 16:28:16;;;;;;;;;;;;;;;;;;5127103;27;20011;-75
2022/01/30 16:30:42;;;;;;;;;;;;;;;;;;5128314;27;20342;-75
2022/01/30 16:33:07;;;;;;;;;;;;;;;;;;5125583;27;20343;-75
2022/01/30 16:35:32;;;;;;;;;;;;;;;;;;5129549;27;19968;-75
2022/01/30 16:38:04;;;;;;;;;;;;;;;;;;5124963;27;19916;-75
2022/01/30 16:40:30;;;;;;;;;;;;;;;;;;5109537;27;19976;-75
2022/01/30 16:42:55;;;;;;;;;;;;;;;;;;5112251;27;19920;-75
2022/01/30 16:45:27;;;;;;;;;;;;;;;;;;5109412;27;19916;-75
2022/01/30 16:48:01;;;;;;;;;;;;;;;;;;5110186;27;19923;-74
2022/01/30 16:50:28;;;;;;;;;;;;;;;;;;5128947;27;19967;-75
2022/01/30 16:52:54;;;;;;;;;;;;;;;;;;5125029;27;19916;-72
2022/01/30 16:55:20;;;;;;;;;;;;;;;;;;5089224;27;20369;-72
2022/01/30 16:57:47;;;;;;;;;;;;;;;;;;5127103;27;19959;-72
2022/01/30 17:00:18;;;;;;;;;;;;;;;;;;5123312;27;19915;-71
2022/01/30 17:02:44;;;;;;;;;;;;;;;;;;5126712;27;19920;-72
2022/01/30 17:05:10;;;;;;;;;;;;;;;;;;5125677;27;19916;-72
2022/01/30 17:07:35;;;;;;;;;;;;;;;;;;5125259;27;19923;-72
2022/01/30 17:10:07;;;;;;;;;;;;;;;;;;5127224;27;19980;-72
2022/01/30 17:12:35;;;;;;;;;;;;;;;;;;5124285;27;19916;-72
2022/01/30 17:15:01;;;;;;;;;;;;;;;;;;5125389;27;19958;-73
2022/01/30 17:17:26;;;;;;;;;;;;;;;;;;5107320;27;19962;-72
2022/01/30 17:19:53;;;;;;;;;;;;;;;;;;5106935;27;19923;-73
2022/01/30 17:22:19;;;;;;;;;;;;;;;;;;5132583;27;19915;-71
2022/01/30 17:24:47;;;;;;;;;;;;;;;;;;5134453;27;19916;-71
2022/01/30 17:27:12;;;;;;;;;;;;;;;;;;5134900;27;20258;-71
2022/01/30 17:29:38;;;;;;;;;;;;;;;;;;5135529;27;20283;-71
2022/01/30 17:32:03;;;;;;;;;;;;;;;;;;5134837;27;19960;-71
2022/01/30 17:34:29;;;;;;;;;;;;;;;;;;5135161;27;20014;-71
2022/01/30 17:36:54;;;;;;;;;;;;;;;;;;5116585;27;20258;-71
2022/01/30 17:39:20;;;;;;;;;;;;;;;;;;5134985;27;19972;-70
2022/01/30 17:41:45;;;;;;;;;;;;;;;;;;5116855;27;19915;-71
2022/01/30 17:44:11;;;;;;;;;;;;;;;;;;5135354;27;19951;-71
2022/01/30 17:46:36;;;;;;;;;;;;;;;;;;5116517;27;19919;-70
2022/01/30 17:49:01;;;;;;;;;;;;;;;;;;5135465;27;19923;-71
2022/01/30 17:51:29;;;;;;;;;;;;;;;;;;5135358;27;20010;-74
2022/01/30 17:53:55;;;;;;;;;;;;;;;;;;5134973;27;19968;-72
2022/01/30 17:56:20;;;;;;;;;;;;;;;;;;5134654;27;20368;-72